Time;durP1;ratioP1;P1;durP2;ratioP2;P2;SDS_P1;SDS_P2;PMS_P1;PMS_P2;Temp;Humidity;BMP_temperature;BMP_pressure;BME280_temperature;BME280_humidity;BME280_pressure;Samples;Min_cycle;Max_cycle;Signal;HPM_P1;HPM_P2
2022/03/23 00:00:04;;;;;;;39.65;23.85;;;;;;;8.73;59.32;102801.09;5035268;28;20041;-73
2022/03/23 00:02:29;;;;;;;35.75;22.52;;;;;;;8.69;59.34;102805.09;5033038;28;20104;-73
2022/03/23 00:04:54;;;;;;;38.60;24.10;;;;;;;8.68;59.26;102800.72;5035079;28;20512;-73
2022/03/23 00:07:20;;;;;;;36.58;22.88;;;;;;;8.58;59.93;102802.72;5017343;28;20061;-73
2022/03/23 00:09:46;;;;;;;36.92;23.40;;;;;;;8.57;59.78;102796.47;5035196;28;20037;-73
2022/03/23 00:12:11;;;;;;;34.97;23.00;;;;;;;8.54;59.78;102799.50;5033224;28;20040;-73
2022/03/23 00:14:37;;;;;;;40.95;22.88;;;;;;;8.50;60.22;102806.25;5035174;28;20033;-73
2022/03/23 00:17:03;;;;;;;36.80;23.73;;;;;;;8.45;60.29;102804.00;5034820;28;20026;-73
2022/03/23 00:19:28;;;;;;;36.13;23.35;;;;;;;8.45;59.93;102800.47;5034999;28;20036;-73
2022/03/23 00:21:54;;;;;;;35.28;23.02;;;;;;;8.39;60.62;102803.78;5034750;28;20040;-72
2022/03/23 00:24:19;;;;;;;39.13;23.73;;;;;;;8.34;60.35;102807.81;5034744;28;20112;-73
2022/03/23 00:26:45;;;;;;;43.10;24.05;;;;;;;8.33;61.13;102808.84;5034661;28;20087;-73
2022/03/23 00:29:10;;;;;;;40.10;23.88;;;;;;;8.30;60.63;102809.16;5016877;28;20388;-73
2022/03/23 00:31:35;;;;;;;43.50;23.98;;;;;;;8.23;60.72;102812.66;5017177;28;20025;-73
2022/03/23 00:34:00;;;;;;;40.17;24.15;;;;;;;8.23;60.61;102804.56;5034932;28;20035;-73
2022/03/23 00:36:26;;;;;;;42.97;23.17;;;;;;;8.18;60.61;102802.34;5034547;28;20025;-73
2022/03/23 00:38:53;;;;;;;41.63;24.25;;;;;;;8.18;60.97;102805.03;5033459;28;20041;-73
2022/03/23 00:41:19;;;;;;;38.20;23.58;;;;;;;8.23;61.63;102805.41;5034275;28;20040;-73
2022/03/23 00:43:45;;;;;;;40.92;23.52;;;;;;;8.17;61.21;102803.38;5033420;28;20460;-73
2022/03/23 00:46:10;;;;;;;40.67;24.40;;;;;;;8.17;60.61;102800.69;5016537;28;20388;-72
2022/03/23 00:48:35;;;;;;;37.72;24.38;;;;;;;8.11;60.75;102806.72;5034025;28;20049;-72
2022/03/23 00:51:01;;;;;;;42.47;23.98;;;;;;;8.07;61.72;102805.34;5034166;28;20114;-72
2022/03/23 00:53:27;;;;;;;40.05;24.15;;;;;;;8.02;61.57;102810.34;5034248;28;20048;-72
2022/03/23 00:55:52;;;;;;;38.45;24.60;;;;;;;7.96;61.02;102807.28;5034027;28;20025;-72
2022/03/23 00:58:17;;;;;;;44.33;24.80;;;;;;;7.91;61.57;102790.75;5034451;28;20029;-72
2022/03/23 01:00:44;;;;;;;40.30;25.00;;;;;;;7.93;61.34;102801.38;5031322;28;20048;-72
2022/03/23 01:03:10;;;;;;;37.70;24.50;;;;;;;7.88;61.41;102807.25;5033510;28;20029;-72
2022/03/23 01:05:35;;;;;;;36.47;23.98;;;;;;;7.79;61.61;102802.81;5016249;28;20029;-73
2022/03/23 01:08:00;;;;;;;41.53;24.63;;;;;;;7.78;61.29;102798.44;5034185;28;20388;-73
2022/03/23 01:10:27;;;;;;;39.92;25.30;;;;;;;7.73;62.12;102798.03;5034011;28;20048;-72
2022/03/23 01:12:54;;;;;;;43.42;25.40;;;;;;;7.74;61.88;102799.75;5032523;28;20025;-72
2022/03/23 01:15:19;;;;;;;42.47;24.80;;;;;;;7.72;61.41;102801.75;5033740;28;20029;-72
2022/03/23 01:17:45;;;;;;;44.42;25.77;;;;;;;7.67;61.62;102793.28;5033916;28;20030;-72
2022/03/23 01:20:12;;;;;;;40.05;24.05;;;;;;;7.61;62.40;102803.69;5033294;28;20033;-72
2022/03/23 01:22:39;;;;;;;39.00;25.98;;;;;;;7.66;62.38;102797.00;5032701;28;20038;-72
2022/03/23 01:25:08;;;;;;;40.33;25.65;;;;;;;7.55;62.18;102792.69;5033999;28;20033;-73
2022/03/23 01:27:36;;;;;;;38.10;24.60;;;;;;;7.56;62.66;102797.09;5033797;28;20033;-73
2022/03/23 01:30:05;;;;;;;37.75;24.35;;;;;;;7.49;62.34;102793.31;5033708;28;20374;-73
2022/03/23 01:32:30;;;;;;;38.03;24.63;;;;;;;7.52;62.03;102785.78;5031928;28;20468;-73
2022/03/23 01:34:55;;;;;;;38.03;25.23;;;;;;;7.45;62.18;102784.72;5033687;28;20079;-72
2022/03/23 01:37:21;;;;;;;39.33;25.77;;;;;;;7.39;62.26;102786.19;5033073;28;20034;-72
2022/03/23 01:39:46;;;;;;;37.92;25.35;;;;;;;7.41;62.50;102777.94;5033601;28;20034;-71
2022/03/23 01:42:11;;;;;;;36.00;24.85;;;;;;;7.37;62.58;102782.81;5033064;28;20029;-72
2022/03/23 01:44:37;;;;;;;43.83;26.02;;;;;;;7.41;62.61;102780.63;5033149;28;20033;-73
2022/03/23 01:47:02;;;;;;;40.00;25.52;;;;;;;7.38;63.29;102780.94;5033176;28;20116;-73
2022/03/23 01:49:28;;;;;;;41.42;25.15;;;;;;;7.36;62.84;102783.81;5031765;28;20057;-73
2022/03/23 01:51:53;;;;;;;42.42;25.30;;;;;;;7.32;63.15;102781.56;5033047;28;20030;-73
2022/03/23 01:54:19;;;;;;;35.55;24.45;;;;;;;7.27;63.44;102771.28;5015254;28;20030;-73
2022/03/23 01:56:45;;;;;;;38.67;25.13;;;;;;;7.21;63.54;102775.44;5033196;28;20117;-72
2022/03/23 01:59:11;;;;;;;41.50;25.05;;;;;;;7.20;63.30;102773.75;5032969;28;20543;-72
2022/03/23 02:01:38;;;;;;;34.70;25.08;;;;;;;7.12;63.72;102784.44;4996481;28;20128;-73
2022/03/23 02:04:03;;;;;;;38.40;24.67;;;;;;;7.14;63.63;102768.13;5033107;28;20040;-73
2022/03/23 02:06:29;;;;;;;37.72;25.13;;;;;;;7.11;63.20;102772.00;5031592;28;20037;-73
2022/03/23 02:08:54;;;;;;;40.00;25.15;;;;;;;7.08;64.07;102770.44;5033383;28;20060;-73
2022/03/23 02:11:19;;;;;;;39.10;24.70;;;;;;;7.05;63.32;102767.19;5032795;28;20033;-73
2022/03/23 02:13:45;;;;;;;36.65;24.55;;;;;;;6.99;64.19;102770.50;5015487;28;20120;-73
2022/03/23 02:16:10;;;;;;;37.53;24.45;;;;;;;6.97;63.36;102775.22;5032122;28;20045;-72
2022/03/23 02:18:35;;;;;;;32.67;23.45;;;;;;;6.97;63.92;102772.53;5033010;28;20041;-72
2022/03/23 02:21:01;;;;;;;37.13;25.05;;;;;;;6.95;64.26;102770.00;5032829;28;20037;-72
2022/03/23 02:23:26;;;;;;;37.97;24.27;;;;;;;6.89;64.17;102768.75;5031431;28;20021;-72
2022/03/23 02:25:59;;;;;;;38.70;24.98;;;;;;;6.91;64.86;102779.34;5032859;28;20025;-72
2022/03/23 02:28:25;;;;;;;36.58;24.70;;;;;;;6.88;64.04;102779.66;5015527;28;20371;-72
2022/03/23 02:30:50;;;;;;;39.67;25.92;;;;;;;6.88;63.66;102780.53;5032515;28;20037;-72
2022/03/23 02:33:21;;;;;;;39.40;24.83;;;;;;;6.84;64.52;102776.44;5032185;28;20033;-72
2022/03/23 02:35:49;;;;;;;46.58;24.73;;;;;;;6.81;64.50;102774.06;5032364;28;20034;-72
2022/03/23 02:38:19;;;;;;;37.15;25.40;;;;;;;6.74;64.25;102770.28;5032325;28;20040;-72
2022/03/23 02:40:45;;;;;;;37.65;26.05;;;;;;;6.71;64.57;102781.34;5032550;28;20035;-72
2022/03/23 02:43:10;;;;;;;35.92;25.20;;;;;;;6.68;64.70;102774.41;5032655;28;20021;-72
2022/03/23 02:45:35;;;;;;;36.20;25.00;;;;;;;6.64;64.30;102766.81;5031755;28;20052;-72
2022/03/23 02:48:03;;;;;;;36.60;24.65;;;;;;;6.65;64.96;102766.66;5032259;28;20054;-73
2022/03/23 02:50:28;;;;;;;39.08;24.25;;;;;;;6.60;64.99;102765.41;5031982;28;20034;-72
2022/03/23 03:04:16;;;;;;;38.28;25.20;;;;;;;6.43;65.26;102767.94;5032340;28;20079;-72
2022/03/23 03:06:42;;;;;;;36.67;24.42;;;;;;;6.43;64.68;102765.25;5014687;28;20061;-72
2022/03/23 03:09:07;;;;;;;39.88;25.15;;;;;;;6.38;64.93;102770.22;5032381;28;20461;-72
2022/03/23 03:11:32;;;;;;;38.20;24.42;;;;;;;6.38;65.25;102768.34;5031845;28;20041;-72
2022/03/23 03:13:58;;;;;;;36.75;24.05;;;;;;;6.28;65.60;102764.03;5032300;28;20032;-72
2022/03/23 03:16:23;;;;;;;47.30;25.92;;;;;;;6.28;65.75;102770.28;5031701;28;20087;-72
2022/03/23 03:18:48;;;;;;;35.65;24.90;;;;;;;6.26;65.12;102766.03;5031933;28;20033;-71
2022/03/23 03:21:14;;;;;;;42.88;25.50;;;;;;;6.25;65.44;102767.03;5032193;28;20022;-72
2022/03/23 03:23:42;;;;;;;45.75;25.42;;;;;;;6.27;65.20;102781.19;5032224;28;20029;-72
2022/03/23 03:26:16;;;;;;;42.55;25.60;;;;;;;6.24;65.63;102776.09;5034120;28;20076;-77
2022/03/23 03:28:42;;;;;;;40.80;25.95;;;;;;;6.17;65.56;102779.34;5035597;28;20033;-72
2022/03/23 03:31:10;;;;;;;38.05;25.50;;;;;;;6.16;65.52;102780.38;5035701;28;20158;-72
2022/03/23 03:33:36;;;;;;;42.78;26.80;;;;;;;6.20;66.09;102773.72;5035593;28;20144;-71
2022/03/23 03:36:03;;;;;;;43.90;26.70;;;;;;;6.17;64.90;102784.72;5035939;28;20459;-72
2022/03/23 03:38:28;;;;;;;43.78;27.23;;;;;;;6.25;65.21;102772.41;5017621;28;20508;-72
2022/03/23 03:40:54;;;;;;;45.38;27.85;;;;;;;6.23;65.10;102772.56;5035907;28;20037;-72
2022/03/23 03:43:19;;;;;;;47.92;26.80;;;;;;;6.28;65.01;102780.16;5017751;28;20028;-72
2022/03/23 03:45:45;;;;;;;46.53;28.25;;;;;;;6.23;65.28;102777.94;5035765;28;20033;-72
2022/03/23 03:48:11;;;;;;;45.85;27.38;;;;;;;6.25;65.80;102780.47;5035431;28;20139;-72
2022/03/23 03:50:36;;;;;;;44.83;26.77;;;;;;;6.21;65.09;102772.69;5035011;28;20167;-72
2022/03/23 03:53:02;;;;;;;50.60;26.90;;;;;;;6.23;65.00;102785.16;5035550;28;20025;-72
2022/03/23 03:55:27;;;;;;;48.10;26.45;;;;;;;6.25;64.92;102780.47;5035366;28;20075;-71
2022/03/23 03:57:53;;;;;;;44.97;27.75;;;;;;;6.16;65.13;102785.75;5035271;28;20487;-72
2022/03/23 04:00:19;;;;;;;46.22;27.30;;;;;;;6.20;65.17;102781.78;5034840;28;20461;-72
2022/03/23 04:02:44;;;;;;;41.28;27.70;;;;;;;6.19;64.94;102787.31;5032183;28;20423;-72
2022/03/23 04:05:10;;;;;;;45.83;28.30;;;;;;;6.24;64.77;102771.56;5017605;28;20030;-71
2022/03/23 04:07:35;;;;;;;49.40;29.40;;;;;;;6.27;64.97;102783.88;5035044;28;20080;-71
2022/03/23 04:10:02;;;;;;;47.22;29.63;;;;;;;6.30;65.25;102781.72;5035346;28;20029;-71
2022/03/23 04:12:28;;;;;;;47.45;28.92;;;;;;;6.34;65.08;102779.56;5035076;28;20029;-72
2022/03/23 04:14:53;;;;;;;44.33;28.08;;;;;;;6.37;65.04;102779.28;5017244;28;20099;-71
2022/03/23 04:17:19;;;;;;;45.55;29.83;;;;;;;6.36;65.10;102785.66;5034857;28;20407;-72
2022/03/23 04:19:44;;;;;;;48.65;29.25;;;;;;;6.32;64.93;102781.56;5035089;28;20029;-71
2022/03/23 04:22:10;;;;;;;49.78;29.05;;;;;;;6.36;64.27;102782.97;5035114;28;20385;-71
2022/03/23 04:24:35;;;;;;;44.33;28.35;;;;;;;6.34;64.39;102779.56;5034577;28;20030;-71
2022/03/23 04:27:00;;;;;;;47.33;28.65;;;;;;;6.29;64.89;102779.19;5035015;28;20029;-71
2022/03/23 04:29:26;;;;;;;45.13;28.88;;;;;;;6.22;65.13;102776.25;5034455;28;20033;-72
2022/03/23 04:31:52;;;;;;;44.05;27.50;;;;;;;6.15;64.37;102784.06;5033673;28;20029;-72
2022/03/23 04:34:17;;;;;;;49.60;28.23;;;;;;;6.12;64.58;102786.19;5034620;28;20079;-72
2022/03/23 04:36:43;;;;;;;49.08;28.75;;;;;;;6.15;65.08;102786.75;5034415;28;20033;-72
2022/03/23 04:39:08;;;;;;;44.97;29.00;;;;;;;6.14;64.70;102790.41;5034443;28;20037;-72
2022/03/23 04:41:33;;;;;;;46.28;28.45;;;;;;;6.11;65.05;102790.72;5034549;28;20457;-72
2022/03/23 04:43:58;;;;;;;44.40;28.63;;;;;;;6.05;65.36;102790.47;5034470;28;20032;-71
2022/03/23 04:46:24;;;;;;;47.58;28.45;;;;;;;6.04;65.35;102795.00;5034211;28;20416;-71
2022/03/23 04:48:49;;;;;;;44.08;27.50;;;;;;;6.01;65.38;102798.00;5034485;28;20046;-71
2022/03/23 04:51:14;;;;;;;44.47;27.50;;;;;;;5.95;65.09;102795.81;5033957;28;20116;-71
2022/03/23 04:53:40;;;;;;;45.03;27.83;;;;;;;5.92;65.15;102794.28;5034326;28;20381;-71
2022/03/23 04:56:05;;;;;;;48.70;28.10;;;;;;;5.86;65.90;102795.72;5034429;28;20101;-71
2022/03/23 04:58:30;;;;;;;45.38;29.00;;;;;;;5.89;65.67;102807.16;5033960;28;20057;-71
2022/03/23 05:00:55;;;;;;;47.30;27.73;;;;;;;5.77;65.54;102815.41;5030793;28;20129;-72
2022/03/23 05:03:21;;;;;;;47.03;27.23;;;;;;;5.77;65.93;102807.34;5033921;28;20025;-71
2022/03/23 05:05:47;;;;;;;46.88;28.65;;;;;;;5.70;65.45;102814.28;5034220;28;20041;-71
2022/03/23 05:08:13;;;;;;;49.65;28.90;;;;;;;5.63;66.52;102818.53;5034159;28;20529;-71
2022/03/23 05:10:38;;;;;;;50.95;28.15;;;;;;;5.55;66.00;102821.94;5033932;28;20037;-71
2022/03/23 05:13:04;;;;;;;46.28;28.17;;;;;;;5.52;66.37;102818.69;5034120;28;20411;-71
2022/03/23 05:15:30;;;;;;;50.65;29.23;;;;;;;5.60;66.27;102819.69;5033573;28;20029;-71
2022/03/23 05:17:56;;;;;;;45.97;27.92;;;;;;;5.60;66.09;102818.81;5033952;28;20112;-71
2022/03/23 05:20:23;;;;;;;42.72;29.15;;;;;;;5.61;66.24;102824.03;5033989;28;20025;-71
2022/03/23 05:22:48;;;;;;;44.70;28.38;;;;;;;5.54;66.68;102814.88;5033938;28;20029;-71
2022/03/23 05:25:13;;;;;;;53.45;28.13;;;;;;;5.52;66.22;102813.31;5033897;28;20195;-71
2022/03/23 05:27:40;;;;;;;49.80;28.75;;;;;;;5.48;66.81;102820.81;5033877;28;20026;-72
2022/03/23 05:30:08;;;;;;;54.67;29.17;;;;;;;5.43;66.86;102818.53;5033281;28;20473;-71
2022/03/23 05:32:34;;;;;;;45.50;29.15;;;;;;;5.46;66.04;102823.63;5033214;28;20052;-71
2022/03/23 05:35:00;;;;;;;46.03;27.50;;;;;;;5.40;66.88;102820.69;5016199;28;20037;-72
2022/03/23 05:37:26;;;;;;;42.90;28.55;;;;;;;5.34;66.60;102819.41;5033163;28;20091;-72
2022/03/23 05:39:52;;;;;;;43.67;27.80;;;;;;;5.29;66.54;102819.81;5033237;28;20068;-72
2022/03/23 05:42:17;;;;;;;43.72;27.92;;;;;;;5.28;66.93;102817.28;5033207;28;20032;-72
2022/03/23 05:44:42;;;;;;;45.78;27.77;;;;;;;5.27;67.02;102823.66;5031865;28;20890;-72
2022/03/23 05:47:08;;;;;;;45.05;27.63;;;;;;;5.29;66.41;102821.69;5032596;28;20029;-72
2022/03/23 05:49:33;;;;;;;45.22;28.33;;;;;;;5.28;66.68;102831.56;5032901;28;20064;-72
2022/03/23 05:51:59;;;;;;;38.75;27.27;;;;;;;5.23;66.51;102828.44;5032889;28;20037;-72
2022/03/23 05:54:25;;;;;;;41.88;27.33;;;;;;;5.18;66.93;102829.84;5033131;28;20025;-71
2022/03/23 05:56:51;;;;;;;41.15;28.38;;;;;;;5.18;67.12;102837.91;5033154;28;20029;-71
2022/03/23 05:59:16;;;;;;;49.53;28.60;;;;;;;5.17;66.93;102836.22;5033185;28;20120;-72
2022/03/23 06:01:42;;;;;;;47.03;28.27;;;;;;;5.15;67.17;102837.22;5028652;28;20117;-72
2022/03/23 06:04:08;;;;;;;48.55;27.25;;;;;;;5.19;67.02;102839.59;5032942;28;20033;-72
2022/03/23 06:06:33;;;;;;;42.60;27.60;;;;;;;5.21;67.17;102834.94;5031644;28;20089;-72
2022/03/23 06:08:59;;;;;;;43.70;27.55;;;;;;;5.23;66.94;102843.72;5033075;28;20029;-72
2022/03/23 06:11:24;;;;;;;48.05;28.40;;;;;;;5.24;67.18;102843.56;5033047;28;20030;-72
2022/03/23 06:13:50;;;;;;;43.45;28.35;;;;;;;5.28;67.16;102844.13;5033044;28;20125;-72
2022/03/23 06:16:16;;;;;;;51.15;28.75;;;;;;;5.25;67.38;102844.41;5032693;28;20026;-72
2022/03/23 06:18:41;;;;;;;50.42;29.05;;;;;;;5.25;67.62;102841.72;5032713;28;20065;-71
2022/03/23 06:21:07;;;;;;;45.00;28.48;;;;;;;5.24;67.58;102848.06;5032979;28;20036;-72
2022/03/23 06:23:32;;;;;;;53.50;29.10;;;;;;;5.31;67.45;102844.72;5015112;28;20048;-72
2022/03/23 06:25:58;;;;;;;49.08;30.02;;;;;;;5.37;67.55;102847.81;5015198;28;20038;-72
2022/03/23 06:28:23;;;;;;;53.78;28.83;;;;;;;5.42;67.90;102848.22;5032691;28;20105;-72
2022/03/23 06:30:50;;;;;;;47.30;28.95;;;;;;;5.43;67.72;102849.94;5032240;28;20053;-72
2022/03/23 06:33:16;;;;;;;49.55;30.65;;;;;;;5.48;67.45;102845.84;5032299;28;20033;-72
2022/03/23 06:35:41;;;;;;;45.60;29.08;;;;;;;5.51;67.52;102844.72;5032414;28;20034;-71
2022/03/23 06:38:07;;;;;;;49.47;30.58;;;;;;;5.55;67.54;102853.31;5032701;28;20033;-71
2022/03/23 06:40:32;;;;;;;54.30;29.77;;;;;;;5.59;67.71;102860.13;5032369;28;20115;-72
2022/03/23 06:42:57;;;;;;;56.63;30.65;;;;;;;5.65;66.97;102855.00;5032467;28;20051;-72
2022/03/23 06:45:23;;;;;;;47.90;30.83;;;;;;;5.72;67.17;102862.50;5032562;28;20112;-72
2022/03/23 06:47:48;;;;;;;46.83;29.75;;;;;;;5.75;67.05;102860.38;5031779;28;20050;-72
2022/03/23 06:50:13;;;;;;;51.42;29.75;;;;;;;5.85;66.50;102866.56;5032543;28;20388;-71
2022/03/23 06:52:39;;;;;;;50.65;30.30;;;;;;;5.89;66.74;102866.28;5032257;28;20028;-72
2022/03/23 06:55:05;;;;;;;43.88;29.23;;;;;;;5.94;66.38;102872.09;5032457;28;20025;-71
2022/03/23 06:57:30;;;;;;;49.85;29.88;;;;;;;5.99;67.42;102872.50;5032117;28;20033;-72
2022/03/23 06:59:55;;;;;;;50.08;30.70;;;;;;;6.00;66.56;102872.38;5033659;28;20412;-72
2022/03/23 07:02:29;;;;;;;52.28;30.33;;;;;;;6.08;66.04;102871.63;5034013;28;20037;-77
2022/03/23 07:04:55;;;;;;;53.55;30.35;;;;;;;6.12;67.14;102869.53;5018637;28;20041;-72
2022/03/23 07:07:20;;;;;;;49.53;30.05;;;;;;;6.11;67.10;102865.97;5018639;28;20358;-72
2022/03/23 07:09:46;;;;;;;49.78;30.65;;;;;;;6.17;66.95;102865.38;5035734;28;20094;-73
2022/03/23 07:12:11;;;;;;;45.38;29.52;;;;;;;6.28;66.10;102877.84;5036489;28;20029;-74
2022/03/23 07:14:39;;;;;;;46.40;29.77;;;;;;;6.37;66.68;102870.69;5036335;28;20033;-74
2022/03/23 07:17:06;;;;;;;44.42;28.98;;;;;;;6.42;66.22;102872.97;5035888;28;20514;-74
2022/03/23 07:19:31;;;;;;;51.33;29.23;;;;;;;6.48;66.04;102881.28;5035916;28;20083;-74
2022/03/23 07:21:57;;;;;;;45.45;29.42;;;;;;;6.56;66.17;102877.84;5035914;28;20033;-74
2022/03/23 07:24:24;;;;;;;47.17;30.30;;;;;;;6.64;65.48;102880.63;5036102;28;20447;-74
2022/03/23 07:26:49;;;;;;;44.17;29.35;;;;;;;6.74;65.76;102884.13;5035898;28;20037;-74
2022/03/23 07:29:15;;;;;;;44.35;29.13;;;;;;;6.83;64.91;102885.06;5035754;28;20038;-75
2022/03/23 07:31:41;;;;;;;50.10;29.52;;;;;;;6.94;63.69;102878.63;5035368;28;20036;-74
2022/03/23 07:34:06;;;;;;;48.88;29.00;;;;;;;7.05;64.38;102886.53;5035718;28;20032;-74
2022/03/23 07:36:31;;;;;;;44.92;30.48;;;;;;;7.08;64.10;102885.34;5035619;28;20034;-74
2022/03/23 07:38:57;;;;;;;52.47;30.27;;;;;;;7.21;62.95;102880.44;5035874;28;20033;-74
2022/03/23 07:41:22;;;;;;;49.25;28.60;;;;;;;7.34;62.03;102887.31;5035675;28;20416;-73
2022/03/23 07:43:49;;;;;;;44.65;30.33;;;;;;;7.41;60.66;102891.06;5035531;28;20116;-74
2022/03/23 07:46:14;;;;;;;43.78;29.30;;;;;;;7.50;60.79;102889.31;5035477;28;20099;-74
2022/03/23 07:48:40;;;;;;;49.08;29.55;;;;;;;7.60;60.70;102890.91;5035353;28;20045;-74
2022/03/23 07:51:05;;;;;;;43.20;27.58;;;;;;;7.66;60.10;102899.41;5035628;28;20384;-74
2022/03/23 07:53:30;;;;;;;45.72;29.58;;;;;;;7.75;60.13;102902.00;5035451;28;20388;-74
2022/03/23 07:55:57;;;;;;;53.17;29.98;;;;;;;7.78;62.05;102906.22;5035312;28;20040;-75
2022/03/23 07:58:23;;;;;;;41.95;29.13;;;;;;;7.90;59.11;102898.75;5035467;28;20029;-74
2022/03/23 08:00:48;;;;;;;53.13;29.33;;;;;;;7.89;59.83;102900.56;5032771;28;20021;-74
2022/03/23 08:03:14;;;;;;;49.05;28.75;;;;;;;8.04;58.75;102903.56;5035595;28;20052;-74
2022/03/23 08:05:42;;;;;;;49.97;29.05;;;;;;;8.16;57.85;102901.44;5019663;28;20045;-74
2022/03/23 08:08:10;;;;;;;46.08;28.65;;;;;;;8.23;58.04;102907.03;5030982;28;20045;-74
2022/03/23 08:10:38;;;;;;;50.63;29.05;;;;;;;8.30;58.18;102908.97;5043058;28;20041;-72
2022/03/23 08:13:04;;;;;;;45.13;28.90;;;;;;;8.38;57.89;102910.00;5034746;28;20017;-73
2022/03/23 08:15:29;;;;;;;48.83;28.45;;;;;;;8.47;56.48;102914.47;5016832;28;20124;-73
2022/03/23 08:17:56;;;;;;;56.78;29.75;;;;;;;8.55;57.04;102901.03;5000600;28;20465;-73
2022/03/23 08:20:35;;;;;;;45.60;29.20;;;;;;;8.63;56.60;102911.84;5034508;28;20061;-73
2022/03/23 08:23:10;;;;;;;49.90;29.25;;;;;;;8.70;56.78;102903.97;5035115;28;20065;-72
2022/03/23 08:25:41;;;;;;;47.97;28.50;;;;;;;8.79;57.12;102896.78;5035032;28;20437;-74
2022/03/23 08:28:07;;;;;;;44.95;28.42;;;;;;;8.83;56.59;102900.81;5033594;28;20030;-73
2022/03/23 08:30:33;;;;;;;46.25;28.55;;;;;;;8.90;55.00;102904.56;5034865;28;20037;-73
2022/03/23 08:32:59;;;;;;;47.92;28.20;;;;;;;8.98;55.60;102901.91;5034205;28;20125;-72
2022/03/23 08:35:25;;;;;;;47.10;28.45;;;;;;;9.08;55.60;102900.91;5034800;28;20112;-76
2022/03/23 08:38:04;;;;;;;44.03;29.27;;;;;;;9.15;55.82;102901.91;5032475;28;20423;-75
2022/03/23 08:40:30;;;;;;;50.65;27.70;;;;;;;9.24;54.89;102900.94;5033368;28;20025;-72
2022/03/23 08:42:58;;;;;;;45.67;28.85;;;;;;;9.30;54.18;102897.59;5034508;28;20033;-72
2022/03/23 08:45:24;;;;;;;48.45;28.55;;;;;;;9.40;54.14;102897.41;5034196;28;20441;-71
2022/03/23 08:47:50;;;;;;;42.60;28.13;;;;;;;9.51;53.63;102902.50;5034113;28;20465;-72
2022/03/23 08:50:16;;;;;;;44.75;28.08;;;;;;;9.63;53.16;102913.84;5034345;28;20029;-73
2022/03/23 08:52:42;;;;;;;42.28;28.52;;;;;;;9.68;52.39;102903.38;5033095;28;20128;-73
2022/03/23 08:55:19;;;;;;;40.05;28.20;;;;;;;9.75;52.86;102915.19;5016584;28;20044;-72
2022/03/23 08:57:44;;;;;;;44.67;28.83;;;;;;;9.82;53.49;102903.69;5034153;28;20025;-73
2022/03/23 09:00:11;;;;;;;43.25;29.35;;;;;;;9.91;53.35;102908.09;5034067;28;20036;-74
2022/03/23 09:02:37;;;;;;;47.40;29.10;;;;;;;10.03;52.38;102905.88;5031776;28;20116;-73
2022/03/23 09:05:03;;;;;;;47.85;28.73;;;;;;;10.14;52.52;102907.38;5034343;28;20058;-69
2022/03/23 09:07:28;;;;;;;46.40;28.80;;;;;;;10.24;52.67;102908.06;5033937;28;20041;-72
2022/03/23 09:09:54;;;;;;;39.08;27.92;;;;;;;10.33;51.42;102908.88;5034904;28;20032;-70
2022/03/23 09:12:20;;;;;;;45.85;28.85;;;;;;;10.41;51.16;102908.88;5036206;28;20472;-73
2022/03/23 09:14:45;;;;;;;43.55;28.48;;;;;;;10.53;50.09;102912.06;5032654;28;20040;-69
2022/03/23 09:17:10;;;;;;;43.05;27.52;;;;;;;10.62;49.60;102909.16;5040605;28;20033;-73
2022/03/23 09:19:36;;;;;;;41.63;27.92;;;;;;;10.70;49.58;102912.84;5036946;28;20034;-73
2022/03/23 09:22:02;;;;;;;51.38;28.83;;;;;;;10.78;50.96;102908.25;5014897;28;20033;-70
2022/03/23 09:24:28;;;;;;;42.30;29.13;;;;;;;10.86;50.10;102907.38;5033012;28;20496;-71
2022/03/23 09:26:54;;;;;;;47.30;28.15;;;;;;;10.98;49.68;102905.13;5033616;28;20031;-72
2022/03/23 09:29:20;;;;;;;43.90;27.42;;;;;;;11.11;49.62;102910.81;5031086;28;20038;-72
2022/03/23 09:31:45;;;;;;;41.38;27.08;;;;;;;11.15;48.78;102895.84;5016255;28;20120;-71
2022/03/23 09:34:11;;;;;;;41.20;28.33;;;;;;;11.26;50.32;102901.91;5015638;28;20030;-72
2022/03/23 09:39:20;;;;;;;39.40;28.23;;;;;;;11.50;48.64;102904.47;5033512;28;20511;-72
2022/03/23 09:41:47;;;;;;;40.45;27.42;;;;;;;11.64;48.27;102900.09;5032681;28;20029;-73
2022/03/23 09:44:13;;;;;;;47.13;28.52;;;;;;;11.73;47.94;102903.59;5031320;28;20060;-74
2022/03/23 09:46:38;;;;;;;45.72;28.08;;;;;;;11.93;47.69;102905.84;5033008;28;20598;-72
2022/03/23 09:49:06;;;;;;;46.45;29.38;;;;;;;12.02;48.15;102902.84;5032879;28;20052;-70
2022/03/23 09:51:34;;;;;;;38.63;26.38;;;;;;;12.19;45.74;102908.13;5033080;28;20037;-75
2022/03/23 09:54:00;;;;;;;34.00;22.05;;;;;;;12.30;43.38;102909.53;5031890;28;20033;-73
2022/03/23 09:56:26;;;;;;;36.53;22.42;;;;;;;12.44;42.82;102900.56;5013842;28;20120;-73
2022/03/23 09:58:51;;;;;;;35.17;21.77;;;;;;;12.57;42.61;102905.31;5035376;28;20112;-74
2022/03/23 10:01:29;;;;;;;35.70;21.50;;;;;;;12.70;43.08;102905.50;5029090;28;20089;-71
2022/03/23 10:04:06;;;;;;;36.03;21.80;;;;;;;12.70;43.60;102901.97;5032189;28;20527;-75
2022/03/23 10:07:12;;;;;;;41.88;24.85;;;;;;;12.81;45.17;102906.06;5033318;28;20044;-74
2022/03/23 10:10:15;;;;;;;39.38;24.27;;;;;;;12.96;45.39;102912.31;5032755;28;20037;-72
2022/03/23 10:13:17;;;;;;;40.38;24.48;;;;;;;13.02;43.84;102908.00;5032818;28;20021;-75
2022/03/23 10:16:20;;;;;;;42.97;24.52;;;;;;;13.03;45.08;102912.38;5032727;28;20025;-72
2022/03/23 10:18:56;;;;;;;36.50;22.45;;;;;;;13.20;42.67;102905.69;5032314;28;20045;-73
2022/03/23 10:21:27;;;;;;;33.50;22.52;;;;;;;13.24;41.45;102901.56;5016134;28;20038;-75
2022/03/23 10:24:02;;;;;;;32.15;22.52;;;;;;;13.38;42.19;102907.16;5032559;28;20472;-73
2022/03/23 10:26:29;;;;;;;29.60;21.60;;;;;;;13.57;40.65;102905.66;5032759;28;20476;-76
2022/03/23 10:28:56;;;;;;;31.63;22.63;;;;;;;13.66;40.79;102904.50;5032181;28;20094;-74
2022/03/23 10:31:27;;;;;;;32.22;22.40;;;;;;;13.73;40.98;102907.28;5015176;28;20037;-74
2022/03/23 10:34:08;;;;;;;36.60;24.17;;;;;;;13.72;39.75;102902.88;5031042;28;20376;-75
2022/03/23 10:36:38;;;;;;;34.90;23.58;;;;;;;13.75;39.91;102905.19;5032638;28;20083;-73
2022/03/23 10:39:18;;;;;;;34.50;23.30;;;;;;;13.91;40.53;102896.75;5030289;28;20386;-71
2022/03/23 10:42:15;;;;;;;39.30;24.43;;;;;;;13.99;40.54;102891.19;5030783;28;20172;-72
2022/03/23 10:44:42;;;;;;;33.55;23.08;;;;;;;14.16;39.65;102893.59;5016738;28;20033;-72
2022/03/23 10:47:19;;;;;;;35.78;22.25;;;;;;;14.32;39.40;102896.00;5014875;28;20036;-75
2022/03/23 10:49:45;;;;;;;31.98;22.45;;;;;;;14.34;38.80;102893.94;5031745;28;20408;-72
2022/03/23 10:52:14;;;;;;;37.50;23.20;;;;;;;14.37;38.74;102900.84;5032091;28;20025;-72
2022/03/23 10:54:53;;;;;;;30.17;21.77;;;;;;;14.41;39.63;102893.13;5032260;28;20061;-71
2022/03/23 10:57:19;;;;;;;30.10;21.85;;;;;;;14.43;36.96;102885.59;5013812;28;20060;-73
2022/03/23 10:59:45;;;;;;;33.78;21.98;;;;;;;14.65;37.51;102887.19;5014377;28;20044;-73
2022/03/23 11:02:11;;;;;;;34.15;21.58;;;;;;;14.78;36.97;102888.28;5030078;28;20052;-74
2022/03/23 11:05:01;;;;;;;33.65;22.58;;;;;;;14.82;38.64;102887.69;5032338;28;20423;-74
2022/03/23 11:07:35;;;;;;;33.25;21.20;;;;;;;14.94;37.90;102885.22;5032519;28;20423;-72
2022/03/23 11:15:49;;;;;;;27.75;20.30;;;;;;;15.28;35.45;102886.16;5030919;28;20409;-70
2022/03/23 11:18:19;;;;;;;30.42;20.02;;;;;;;15.36;35.01;102883.22;5032360;28;20065;-71
2022/03/23 11:20:46;;;;;;;30.73;19.75;;;;;;;15.50;35.43;102883.25;5031614;28;20440;-72
2022/03/23 11:23:22;;;;;;;27.65;19.73;;;;;;;15.64;36.70;102884.94;5032298;28;20568;-72
2022/03/23 11:25:49;;;;;;;25.70;19.30;;;;;;;15.66;34.30;102877.38;5032051;28;20109;-73
2022/03/23 11:28:15;;;;;;;28.15;20.13;;;;;;;15.71;34.63;102879.47;5031759;28;20037;-73
2022/03/23 11:30:42;;;;;;;31.25;21.70;;;;;;;15.72;33.52;102882.00;5032132;28;20491;-72
2022/03/23 11:33:10;;;;;;;29.92;20.42;;;;;;;15.67;34.27;102876.34;5031734;28;20037;-71